sensor_id;sensor_type;location;lat;lon;timestamp;P1;durP1;ratioP1;P2;durP2;ratioP2
31652;SDS011;18261;53.648;9.910;2023-07-13T00:00:25;10.68;;;2.92;;
31652;SDS011;18261;53.648;9.910;2023-07-13T00:02:51;14.73;;;3.28;;
31652;SDS011;18261;53.648;9.910;2023-07-13T00:05:20;11.25;;;2.90;;
31652;SDS011;18261;53.648;9.910;2023-07-13T00:07:46;9.05;;;3.03;;
31652;SDS011;18261;53.648;9.910;2023-07-13T00:10:13;7.68;;;3.67;;
31652;SDS011;18261;53.648;9.910;2023-07-13T00:12:39;8.32;;;2.92;;
31652;SDS011;18261;53.648;9.910;2023-07-13T00:15:19;8.45;;;3.00;;
31652;SDS011;18261;53.648;9.910;2023-07-13T00:17:48;8.98;;;2.65;;
31652;SDS011;18261;53.648;9.910;2023-07-13T00:20:14;9.05;;;3.50;;
31652;SDS011;18261;53.648;9.910;2023-07-13T00:22:40;13.07;;;5.05;;
31652;SDS011;18261;53.648;9.910;2023-07-13T00:25:06;11.10;;;5.72;;
31652;SDS011;18261;53.648;9.910;2023-07-13T00:27:32;14.63;;;6.93;;
31652;SDS011;18261;53.648;9.910;2023-07-13T00:30:11;10.65;;;4.22;;
31652;SDS011;18261;53.648;9.910;2023-07-13T00:32:37;13.48;;;3.72;;
31652;SDS011;18261;53.648;9.910;2023-07-13T00:35:03;10.70;;;3.72;;
31652;SDS011;18261;53.648;9.910;2023-07-13T00:37:30;9.52;;;3.60;;
31652;SDS011;18261;53.648;9.910;2023-07-13T00:39:56;28.23;;;12.23;;
31652;SDS011;18261;53.648;9.910;2023-07-13T00:42:22;21.42;;;9.18;;
31652;SDS011;18261;53.648;9.910;2023-07-13T00:47:33;9.32;;;4.07;;
31652;SDS011;18261;53.648;9.910;2023-07-13T00:49:59;11.65;;;4.60;;
31652;SDS011;18261;53.648;9.910;2023-07-13T00:52:25;16.77;;;7.03;;
31652;SDS011;18261;53.648;9.910;2023-07-13T00:54:53;18.73;;;8.52;;
31652;SDS011;18261;53.648;9.910;2023-07-13T00:57:20;13.13;;;6.13;;
31652;SDS011;18261;53.648;9.910;2023-07-13T00:59:58;14.05;;;5.38;;
31652;SDS011;18261;53.648;9.910;2023-07-13T01:02:25;13.52;;;4.75;;
31652;SDS011;18261;53.648;9.910;2023-07-13T01:04:52;13.65;;;4.82;;
31652;SDS011;18261;53.648;9.910;2023-07-13T01:07:18;16.05;;;4.40;;
31652;SDS011;18261;53.648;9.910;2023-07-13T01:09:44;10.63;;;4.18;;
31652;SDS011;18261;53.648;9.910;2023-07-13T01:12:10;16.23;;;5.10;;
31652;SDS011;18261;53.648;9.910;2023-07-13T01:14:36;15.38;;;5.85;;
31652;SDS011;18261;53.648;9.910;2023-07-13T01:17:03;10.48;;;4.57;;
31652;SDS011;18261;53.648;9.910;2023-07-13T01:22:06;11.60;;;4.68;;
31652;SDS011;18261;53.648;9.910;2023-07-13T01:24:36;10.27;;;4.00;;
31652;SDS011;18261;53.648;9.910;2023-07-13T01:27:03;9.93;;;4.20;;
31652;SDS011;18261;53.648;9.910;2023-07-13T01:29:30;11.13;;;4.25;;
31652;SDS011;18261;53.648;9.910;2023-07-13T01:31:57;8.35;;;3.88;;
31652;SDS011;18261;53.648;9.910;2023-07-13T01:34:23;11.10;;;4.20;;
31652;SDS011;18261;53.648;9.910;2023-07-13T01:36:48;13.70;;;4.40;;
31652;SDS011;18261;53.648;9.910;2023-07-13T01:39:18;11.18;;;4.30;;
31652;SDS011;18261;53.648;9.910;2023-07-13T01:41:44;10.45;;;3.95;;
31652;SDS011;18261;53.648;9.910;2023-07-13T01:44:10;9.88;;;4.07;;
31652;SDS011;18261;53.648;9.910;2023-07-13T01:46:36;11.77;;;4.28;;
31652;SDS011;18261;53.648;9.910;2023-07-13T01:49:02;9.88;;;3.88;;
31652;SDS011;18261;53.648;9.910;2023-07-13T01:51:28;11.27;;;4.32;;
31652;SDS011;18261;53.648;9.910;2023-07-13T01:53:54;13.07;;;4.38;;
31652;SDS011;18261;53.648;9.910;2023-07-13T01:56:20;11.90;;;4.53;;
31652;SDS011;18261;53.648;9.910;2023-07-13T01:58:46;10.35;;;4.32;;
31652;SDS011;18261;53.648;9.910;2023-07-13T02:01:12;9.45;;;4.43;;
31652;SDS011;18261;53.648;9.910;2023-07-13T02:03:38;11.43;;;4.40;;
31652;SDS011;18261;53.648;9.910;2023-07-13T02:06:04;18.27;;;5.45;;
31652;SDS011;18261;53.648;9.910;2023-07-13T02:08:32;8.65;;;4.20;;
31652;SDS011;18261;53.648;9.910;2023-07-13T02:10:59;14.32;;;4.78;;
31652;SDS011;18261;53.648;9.910;2023-07-13T02:13:25;10.20;;;4.82;;
31652;SDS011;18261;53.648;9.910;2023-07-13T02:15:51;10.45;;;5.38;;
31652;SDS011;18261;53.648;9.910;2023-07-13T02:18:17;11.32;;;5.03;;
31652;SDS011;18261;53.648;9.910;2023-07-13T02:20:43;12.15;;;5.15;;
31652;SDS011;18261;53.648;9.910;2023-07-13T02:23:09;14.80;;;4.95;;
31652;SDS011;18261;53.648;9.910;2023-07-13T02:25:36;15.43;;;5.60;;
31652;SDS011;18261;53.648;9.910;2023-07-13T02:28:02;11.18;;;5.45;;
31652;SDS011;18261;53.648;9.910;2023-07-13T02:30:28;11.82;;;5.40;;
31652;SDS011;18261;53.648;9.910;2023-07-13T02:32:55;14.80;;;5.95;;
31652;SDS011;18261;53.648;9.910;2023-07-13T02:35:21;12.68;;;5.47;;
31652;SDS011;18261;53.648;9.910;2023-07-13T02:37:47;12.25;;;5.43;;
31652;SDS011;18261;53.648;9.910;2023-07-13T02:40:13;9.55;;;5.57;;
31652;SDS011;18261;53.648;9.910;2023-07-13T02:42:39;13.27;;;5.70;;
31652;SDS011;18261;53.648;9.910;2023-07-13T02:45:06;12.98;;;5.85;;
31652;SDS011;18261;53.648;9.910;2023-07-13T02:47:32;9.15;;;6.45;;
31652;SDS011;18261;53.648;9.910;2023-07-13T02:49:58;10.52;;;5.85;;
31652;SDS011;18261;53.648;9.910;2023-07-13T02:52:24;13.38;;;6.50;;
31652;SDS011;18261;53.648;9.910;2023-07-13T02:54:50;15.82;;;6.15;;
31652;SDS011;18261;53.648;9.910;2023-07-13T02:57:16;11.15;;;6.00;;
31652;SDS011;18261;53.648;9.910;2023-07-13T02:59:42;12.60;;;6.43;;
31652;SDS011;18261;53.648;9.910;2023-07-13T03:02:08;11.10;;;6.05;;
31652;SDS011;18261;53.648;9.910;2023-07-13T03:04:35;15.95;;;6.20;;
31652;SDS011;18261;53.648;9.910;2023-07-13T03:07:01;17.67;;;6.65;;
31652;SDS011;18261;53.648;9.910;2023-07-13T03:09:27;15.18;;;6.45;;
31652;SDS011;18261;53.648;9.910;2023-07-13T03:11:54;11.68;;;5.93;;
31652;SDS011;18261;53.648;9.910;2023-07-13T03:14:20;14.15;;;6.22;;
31652;SDS011;18261;53.648;9.910;2023-07-13T03:16:46;15.95;;;6.28;;
31652;SDS011;18261;53.648;9.910;2023-07-13T03:19:12;17.67;;;6.00;;
31652;SDS011;18261;53.648;9.910;2023-07-13T03:21:38;17.38;;;6.65;;
31652;SDS011;18261;53.648;9.910;2023-07-13T03:24:04;12.90;;;5.82;;
31652;SDS011;18261;53.648;9.910;2023-07-13T03:26:30;13.05;;;6.47;;
31652;SDS011;18261;53.648;9.910;2023-07-13T03:28:57;13.85;;;6.00;;
31652;SDS011;18261;53.648;9.910;2023-07-13T03:31:24;16.05;;;6.30;;
31652;SDS011;18261;53.648;9.910;2023-07-13T03:33:51;14.65;;;5.82;;
31652;SDS011;18261;53.648;9.910;2023-07-13T03:36:20;17.08;;;6.20;;
31652;SDS011;18261;53.648;9.910;2023-07-13T03:38:48;11.60;;;5.72;;
31652;SDS011;18261;53.648;9.910;2023-07-13T03:41:15;12.30;;;5.85;;
31652;SDS011;18261;53.648;9.910;2023-07-13T03:43:41;10.73;;;5.70;;
31652;SDS011;18261;53.648;9.910;2023-07-13T03:46:07;14.82;;;5.72;;
31652;SDS011;18261;53.648;9.910;2023-07-13T03:48:33;13.90;;;5.95;;
31652;SDS011;18261;53.648;9.910;2023-07-13T03:50:59;11.43;;;6.00;;
31652;SDS011;18261;53.648;9.910;2023-07-13T03:53:25;12.20;;;5.75;;
31652;SDS011;18261;53.648;9.910;2023-07-13T03:55:51;10.07;;;5.60;;
31652;SDS011;18261;53.648;9.910;2023-07-13T04:00:53;12.93;;;5.63;;
31652;SDS011;18261;53.648;9.910;2023-07-13T04:03:19;13.02;;;5.47;;
31652;SDS011;18261;53.648;9.910;2023-07-13T04:05:45;15.73;;;5.30;;
31652;SDS011;18261;53.648;9.910;2023-07-13T04:08:11;14.70;;;5.57;;
31652;SDS011;18261;53.648;9.910;2023-07-13T04:10:37;14.15;;;5.22;;
31652;SDS011;18261;53.648;9.910;2023-07-13T04:13:03;17.52;;;5.57;;
31652;SDS011;18261;53.648;9.910;2023-07-13T04:15:30;12.10;;;5.15;;
31652;SDS011;18261;53.648;9.910;2023-07-13T04:17:56;11.75;;;4.72;;
31652;SDS011;18261;53.648;9.910;2023-07-13T04:20:23;12.18;;;4.40;;
31652;SDS011;18261;53.648;9.910;2023-07-13T04:22:49;14.95;;;4.90;;
31652;SDS011;18261;53.648;9.910;2023-07-13T04:25:15;15.88;;;5.13;;
31652;SDS011;18261;53.648;9.910;2023-07-13T04:27:41;19.02;;;4.93;;
31652;SDS011;18261;53.648;9.910;2023-07-13T04:30:07;10.48;;;5.28;;
31652;SDS011;18261;53.648;9.910;2023-07-13T04:32:33;13.40;;;5.30;;
31652;SDS011;18261;53.648;9.910;2023-07-13T04:34:59;11.77;;;4.85;;
31652;SDS011;18261;53.648;9.910;2023-07-13T04:37:25;15.68;;;5.30;;
31652;SDS011;18261;53.648;9.910;2023-07-13T04:39:51;17.23;;;5.53;;
31652;SDS011;18261;53.648;9.910;2023-07-13T04:42:18;14.45;;;4.95;;
31652;SDS011;18261;53.648;9.910;2023-07-13T04:44:50;14.93;;;5.28;;
31652;SDS011;18261;53.648;9.910;2023-07-13T04:47:17;20.25;;;5.65;;
31652;SDS011;18261;53.648;9.910;2023-07-13T04:49:44;17.65;;;5.18;;
31652;SDS011;18261;53.648;9.910;2023-07-13T04:52:10;16.60;;;5.22;;
31652;SDS011;18261;53.648;9.910;2023-07-13T04:54:36;19.38;;;5.60;;
31652;SDS011;18261;53.648;9.910;2023-07-13T04:57:03;21.73;;;6.32;;
31652;SDS011;18261;53.648;9.910;2023-07-13T04:59:31;16.50;;;5.32;;
31652;SDS011;18261;53.648;9.910;2023-07-13T05:01:57;15.75;;;5.97;;
31652;SDS011;18261;53.648;9.910;2023-07-13T05:04:23;18.63;;;6.90;;
31652;SDS011;18261;53.648;9.910;2023-07-13T05:06:49;17.73;;;6.20;;
31652;SDS011;18261;53.648;9.910;2023-07-13T05:09:15;19.52;;;6.43;;
31652;SDS011;18261;53.648;9.910;2023-07-13T05:11:41;22.27;;;5.40;;
31652;SDS011;18261;53.648;9.910;2023-07-13T05:14:07;24.00;;;6.07;;
31652;SDS011;18261;53.648;9.910;2023-07-13T05:16:34;21.90;;;6.13;;
31652;SDS011;18261;53.648;9.910;2023-07-13T05:19:00;17.25;;;5.22;;
31652;SDS011;18261;53.648;9.910;2023-07-13T05:21:26;17.38;;;5.00;;
31652;SDS011;18261;53.648;9.910;2023-07-13T05:23:52;23.67;;;5.65;;
31652;SDS011;18261;53.648;9.910;2023-07-13T05:26:18;13.05;;;4.82;;
31652;SDS011;18261;53.648;9.910;2023-07-13T05:28:45;20.20;;;5.55;;
31652;SDS011;18261;53.648;9.910;2023-07-13T05:31:11;24.17;;;5.55;;
31652;SDS011;18261;53.648;9.910;2023-07-13T05:33:38;31.63;;;5.75;;
31652;SDS011;18261;53.648;9.910;2023-07-13T05:36:04;18.50;;;5.25;;
31652;SDS011;18261;53.648;9.910;2023-07-13T05:38:30;23.23;;;5.97;;
31652;SDS011;18261;53.648;9.910;2023-07-13T05:40:56;19.67;;;5.50;;
31652;SDS011;18261;53.648;9.910;2023-07-13T05:43:22;18.85;;;6.22;;
31652;SDS011;18261;53.648;9.910;2023-07-13T05:45:48;27.17;;;5.97;;
31652;SDS011;18261;53.648;9.910;2023-07-13T05:48:16;23.15;;;5.55;;
31652;SDS011;18261;53.648;9.910;2023-07-13T05:50:42;19.60;;;6.18;;
31652;SDS011;18261;53.648;9.910;2023-07-13T05:53:08;23.77;;;6.20;;
31652;SDS011;18261;53.648;9.910;2023-07-13T05:55:34;20.52;;;5.70;;
31652;SDS011;18261;53.648;9.910;2023-07-13T05:58:00;18.00;;;5.50;;
31652;SDS011;18261;53.648;9.910;2023-07-13T06:00:26;18.42;;;5.75;;
31652;SDS011;18261;53.648;9.910;2023-07-13T06:02:52;23.45;;;6.43;;
31652;SDS011;18261;53.648;9.910;2023-07-13T06:05:19;21.92;;;5.88;;
31652;SDS011;18261;53.648;9.910;2023-07-13T06:07:45;24.20;;;5.78;;
31652;SDS011;18261;53.648;9.910;2023-07-13T06:10:11;24.73;;;6.28;;
31652;SDS011;18261;53.648;9.910;2023-07-13T06:12:37;21.40;;;6.03;;
31652;SDS011;18261;53.648;9.910;2023-07-13T06:15:04;22.92;;;5.93;;
31652;SDS011;18261;53.648;9.910;2023-07-13T06:17:30;28.05;;;6.47;;
31652;SDS011;18261;53.648;9.910;2023-07-13T06:19:56;24.30;;;5.30;;
31652;SDS011;18261;53.648;9.910;2023-07-13T06:22:22;20.92;;;5.43;;
31652;SDS011;18261;53.648;9.910;2023-07-13T06:24:48;21.83;;;5.60;;
31652;SDS011;18261;53.648;9.910;2023-07-13T06:27:14;20.35;;;5.22;;
31652;SDS011;18261;53.648;9.910;2023-07-13T06:29:40;21.63;;;5.80;;
31652;SDS011;18261;53.648;9.910;2023-07-13T06:32:10;22.60;;;5.80;;
31652;SDS011;18261;53.648;9.910;2023-07-13T06:34:36;25.42;;;5.40;;
31652;SDS011;18261;53.648;9.910;2023-07-13T06:37:02;29.40;;;5.60;;
31652;SDS011;18261;53.648;9.910;2023-07-13T06:39:28;19.80;;;5.05;;
31652;SDS011;18261;53.648;9.910;2023-07-13T06:41:54;26.30;;;5.43;;
31652;SDS011;18261;53.648;9.910;2023-07-13T06:44:20;27.20;;;4.95;;
31652;SDS011;18261;53.648;9.910;2023-07-13T06:46:46;27.77;;;4.97;;
31652;SDS011;18261;53.648;9.910;2023-07-13T06:49:12;19.70;;;4.68;;
31652;SDS011;18261;53.648;9.910;2023-07-13T06:51:38;21.45;;;4.68;;
31652;SDS011;18261;53.648;9.910;2023-07-13T06:54:04;21.90;;;4.88;;
31652;SDS011;18261;53.648;9.910;2023-07-13T06:56:30;23.48;;;4.55;;
31652;SDS011;18261;53.648;9.910;2023-07-13T06:58:56;22.55;;;4.72;;
31652;SDS011;18261;53.648;9.910;2023-07-13T07:01:22;32.92;;;6.18;;
31652;SDS011;18261;53.648;9.910;2023-07-13T07:03:48;21.13;;;6.03;;
31652;SDS011;18261;53.648;9.910;2023-07-13T07:06:15;24.75;;;6.38;;
31652;SDS011;18261;53.648;9.910;2023-07-13T07:08:41;27.77;;;4.82;;
31652;SDS011;18261;53.648;9.910;2023-07-13T07:11:18;29.10;;;7.93;;
31652;SDS011;18261;53.648;9.910;2023-07-13T07:13:45;23.40;;;6.15;;
31652;SDS011;18261;53.648;9.910;2023-07-13T07:16:11;21.85;;;4.88;;
31652;SDS011;18261;53.648;9.910;2023-07-13T07:18:37;20.92;;;4.47;;
31652;SDS011;18261;53.648;9.910;2023-07-13T07:21:03;24.13;;;4.45;;
31652;SDS011;18261;53.648;9.910;2023-07-13T07:23:29;23.73;;;5.30;;
31652;SDS011;18261;53.648;9.910;2023-07-13T07:25:55;31.38;;;8.93;;
31652;SDS011;18261;53.648;9.910;2023-07-13T07:28:21;22.35;;;4.50;;
31652;SDS011;18261;53.648;9.910;2023-07-13T07:30:48;27.33;;;8.05;;
31652;SDS011;18261;53.648;9.910;2023-07-13T07:33:15;27.52;;;5.22;;
31652;SDS011;18261;53.648;9.910;2023-07-13T07:35:42;23.10;;;3.95;;
31652;SDS011;18261;53.648;9.910;2023-07-13T07:38:08;24.45;;;4.80;;
31652;SDS011;18261;53.648;9.910;2023-07-13T07:40:36;23.17;;;4.43;;
31652;SDS011;18261;53.648;9.910;2023-07-13T07:43:02;21.27;;;5.80;;
31652;SDS011;18261;53.648;9.910;2023-07-13T07:45:28;18.40;;;4.10;;
31652;SDS011;18261;53.648;9.910;2023-07-13T07:47:54;17.48;;;3.85;;
31652;SDS011;18261;53.648;9.910;2023-07-13T07:50:23;30.30;;;5.65;;
31652;SDS011;18261;53.648;9.910;2023-07-13T07:52:49;21.40;;;4.82;;
31652;SDS011;18261;53.648;9.910;2023-07-13T07:55:15;26.88;;;4.60;;
31652;SDS011;18261;53.648;9.910;2023-07-13T07:57:41;22.30;;;4.68;;
31652;SDS011;18261;53.648;9.910;2023-07-13T08:00:07;27.00;;;4.68;;
31652;SDS011;18261;53.648;9.910;2023-07-13T08:02:33;19.63;;;4.15;;
31652;SDS011;18261;53.648;9.910;2023-07-13T08:04:59;21.73;;;4.55;;
31652;SDS011;18261;53.648;9.910;2023-07-13T08:07:25;22.77;;;4.38;;
31652;SDS011;18261;53.648;9.910;2023-07-13T08:09:52;28.63;;;4.75;;
31652;SDS011;18261;53.648;9.910;2023-07-13T08:12:18;21.67;;;4.43;;
31652;SDS011;18261;53.648;9.910;2023-07-13T08:14:44;27.77;;;3.92;;
31652;SDS011;18261;53.648;9.910;2023-07-13T08:17:10;21.67;;;4.32;;
31652;SDS011;18261;53.648;9.910;2023-07-13T08:19:36;18.70;;;3.90;;
31652;SDS011;18261;53.648;9.910;2023-07-13T08:22:02;17.45;;;3.95;;
31652;SDS011;18261;53.648;9.910;2023-07-13T08:24:28;22.20;;;4.35;;
31652;SDS011;18261;53.648;9.910;2023-07-13T08:26:56;29.33;;;4.38;;
31652;SDS011;18261;53.648;9.910;2023-07-13T08:29:22;25.60;;;3.78;;
31652;SDS011;18261;53.648;9.910;2023-07-13T08:31:48;20.92;;;4.03;;
31652;SDS011;18261;53.648;9.910;2023-07-13T08:34:15;24.55;;;3.85;;
31652;SDS011;18261;53.648;9.910;2023-07-13T08:36:41;16.10;;;3.70;;
31652;SDS011;18261;53.648;9.910;2023-07-13T08:39:07;21.40;;;4.25;;
31652;SDS011;18261;53.648;9.910;2023-07-13T08:41:33;22.48;;;4.50;;
31652;SDS011;18261;53.648;9.910;2023-07-13T08:44:00;16.90;;;3.78;;
31652;SDS011;18261;53.648;9.910;2023-07-13T08:46:36;19.35;;;3.70;;
31652;SDS011;18261;53.648;9.910;2023-07-13T08:51:38;18.02;;;3.75;;
31652;SDS011;18261;53.648;9.910;2023-07-13T08:56:38;19.50;;;3.35;;
31652;SDS011;18261;53.648;9.910;2023-07-13T08:59:11;17.35;;;3.53;;
31652;SDS011;18261;53.648;9.910;2023-07-13T09:06:34;19.65;;;3.50;;
31652;SDS011;18261;53.648;9.910;2023-07-13T09:09:08;22.27;;;7.07;;
31652;SDS011;18261;53.648;9.910;2023-07-13T09:11:40;20.17;;;3.90;;
31652;SDS011;18261;53.648;9.910;2023-07-13T09:14:26;12.18;;;3.40;;
31652;SDS011;18261;53.648;9.910;2023-07-13T09:19:23;19.38;;;3.38;;
31652;SDS011;18261;53.648;9.910;2023-07-13T09:21:50;13.88;;;3.78;;
31652;SDS011;18261;53.648;9.910;2023-07-13T09:26:48;15.70;;;3.13;;
31652;SDS011;18261;53.648;9.910;2023-07-13T09:29:16;16.38;;;3.65;;
31652;SDS011;18261;53.648;9.910;2023-07-13T09:31:45;15.18;;;3.58;;
31652;SDS011;18261;53.648;9.910;2023-07-13T09:34:14;11.70;;;3.00;;
31652;SDS011;18261;53.648;9.910;2023-07-13T09:36:40;14.88;;;3.42;;
31652;SDS011;18261;53.648;9.910;2023-07-13T09:42:03;23.33;;;3.92;;
31652;SDS011;18261;53.648;9.910;2023-07-13T09:44:36;16.08;;;3.25;;
31652;SDS011;18261;53.648;9.910;2023-07-13T09:47:02;11.65;;;3.17;;
31652;SDS011;18261;53.648;9.910;2023-07-13T09:49:29;13.10;;;3.17;;
31652;SDS011;18261;53.648;9.910;2023-07-13T09:51:59;11.20;;;3.35;;
31652;SDS011;18261;53.648;9.910;2023-07-13T09:54:26;16.23;;;3.28;;
31652;SDS011;18261;53.648;9.910;2023-07-13T09:56:55;18.45;;;3.20;;
31652;SDS011;18261;53.648;9.910;2023-07-13T09:59:22;16.50;;;3.10;;
31652;SDS011;18261;53.648;9.910;2023-07-13T10:01:49;16.40;;;3.47;;
31652;SDS011;18261;53.648;9.910;2023-07-13T10:04:19;15.10;;;2.92;;
31652;SDS011;18261;53.648;9.910;2023-07-13T10:06:45;16.58;;;3.05;;
31652;SDS011;18261;53.648;9.910;2023-07-13T10:09:17;19.48;;;3.80;;
31652;SDS011;18261;53.648;9.910;2023-07-13T10:11:44;16.15;;;3.47;;
31652;SDS011;18261;53.648;9.910;2023-07-13T10:14:17;12.77;;;3.00;;
31652;SDS011;18261;53.648;9.910;2023-07-13T10:16:45;11.63;;;3.17;;
31652;SDS011;18261;53.648;9.910;2023-07-13T10:19:19;10.82;;;3.00;;
31652;SDS011;18261;53.648;9.910;2023-07-13T10:21:53;12.07;;;2.50;;
31652;SDS011;18261;53.648;9.910;2023-07-13T10:24:21;15.85;;;3.22;;
31652;SDS011;18261;53.648;9.910;2023-07-13T10:26:58;11.15;;;2.40;;
31652;SDS011;18261;53.648;9.910;2023-07-13T10:29:27;14.45;;;2.47;;
31652;SDS011;18261;53.648;9.910;2023-07-13T10:31:55;10.55;;;2.47;;
31652;SDS011;18261;53.648;9.910;2023-07-13T10:34:22;10.50;;;2.05;;
31652;SDS011;18261;53.648;9.910;2023-07-13T10:36:48;12.18;;;2.70;;
31652;SDS011;18261;53.648;9.910;2023-07-13T10:39:21;7.35;;;2.53;;
31652;SDS011;18261;53.648;9.910;2023-07-13T10:44:26;12.32;;;2.58;;
31652;SDS011;18261;53.648;9.910;2023-07-13T10:47:04;6.93;;;2.42;;
31652;SDS011;18261;53.648;9.910;2023-07-13T10:49:32;12.38;;;3.00;;
31652;SDS011;18261;53.648;9.910;2023-07-13T10:52:00;11.50;;;2.45;;
31652;SDS011;18261;53.648;9.910;2023-07-13T10:54:27;18.45;;;2.83;;
31652;SDS011;18261;53.648;9.910;2023-07-13T10:57:06;13.63;;;2.78;;
31652;SDS011;18261;53.648;9.910;2023-07-13T10:59:34;9.98;;;2.55;;
31652;SDS011;18261;53.648;9.910;2023-07-13T11:04:39;17.27;;;3.03;;
31652;SDS011;18261;53.648;9.910;2023-07-13T11:07:20;10.65;;;3.03;;
31652;SDS011;18261;53.648;9.910;2023-07-13T11:09:49;11.32;;;2.67;;
31652;SDS011;18261;53.648;9.910;2023-07-13T11:19:51;8.85;;;2.70;;
31652;SDS011;18261;53.648;9.910;2023-07-13T11:22:21;14.75;;;2.80;;
31652;SDS011;18261;53.648;9.910;2023-07-13T11:27:28;10.52;;;2.30;;
31652;SDS011;18261;53.648;9.910;2023-07-13T11:30:08;13.23;;;2.65;;
31652;SDS011;18261;53.648;9.910;2023-07-13T11:35:01;9.32;;;2.13;;
31652;SDS011;18261;53.648;9.910;2023-07-13T11:37:27;10.68;;;2.20;;
31652;SDS011;18261;53.648;9.910;2023-07-13T11:39:54;10.77;;;1.88;;
31652;SDS011;18261;53.648;9.910;2023-07-13T11:42:20;11.75;;;2.05;;
31652;SDS011;18261;53.648;9.910;2023-07-13T11:44:47;9.07;;;4.60;;
31652;SDS011;18261;53.648;9.910;2023-07-13T11:47:17;14.82;;;2.90;;
31652;SDS011;18261;53.648;9.910;2023-07-13T11:49:45;7.68;;;2.53;;
31652;SDS011;18261;53.648;9.910;2023-07-13T11:52:15;8.95;;;2.50;;
31652;SDS011;18261;53.648;9.910;2023-07-13T11:54:52;8.00;;;2.47;;
31652;SDS011;18261;53.648;9.910;2023-07-13T11:57:34;12.05;;;2.60;;
31652;SDS011;18261;53.648;9.910;2023-07-13T12:00:01;12.70;;;3.35;;
31652;SDS011;18261;53.648;9.910;2023-07-13T12:04:57;11.52;;;2.85;;
31652;SDS011;18261;53.648;9.910;2023-07-13T12:07:23;11.65;;;2.10;;
31652;SDS011;18261;53.648;9.910;2023-07-13T12:09:49;15.93;;;2.83;;
31652;SDS011;18261;53.648;9.910;2023-07-13T12:12:20;12.25;;;2.75;;
31652;SDS011;18261;53.648;9.910;2023-07-13T12:14:50;10.48;;;3.60;;
31652;SDS011;18261;53.648;9.910;2023-07-13T12:17:23;12.93;;;4.65;;
31652;SDS011;18261;53.648;9.910;2023-07-13T12:19:50;16.42;;;5.50;;
31652;SDS011;18261;53.648;9.910;2023-07-13T12:22:17;13.25;;;3.13;;
31652;SDS011;18261;53.648;9.910;2023-07-13T12:24:44;8.57;;;2.42;;
31652;SDS011;18261;53.648;9.910;2023-07-13T12:27:24;13.65;;;3.20;;
31652;SDS011;18261;53.648;9.910;2023-07-13T12:30:32;9.68;;;3.22;;
31652;SDS011;18261;53.648;9.910;2023-07-13T12:32:39;9.05;;;3.15;;
31652;SDS011;18261;53.648;9.910;2023-07-13T12:35:16;16.05;;;3.60;;
31652;SDS011;18261;53.648;9.910;2023-07-13T12:37:43;8.18;;;2.28;;
31652;SDS011;18261;53.648;9.910;2023-07-13T12:42:39;12.23;;;3.05;;
31652;SDS011;18261;53.648;9.910;2023-07-13T12:45:17;12.40;;;3.17;;
31652;SDS011;18261;53.648;9.910;2023-07-13T12:47:46;10.63;;;2.30;;
31652;SDS011;18261;53.648;9.910;2023-07-13T12:50:17;10.60;;;2.97;;
31652;SDS011;18261;53.648;9.910;2023-07-13T12:52:43;7.97;;;2.45;;
31652;SDS011;18261;53.648;9.910;2023-07-13T12:55:14;11.10;;;2.58;;
31652;SDS011;18261;53.648;9.910;2023-07-13T12:57:44;12.75;;;3.17;;
31652;SDS011;18261;53.648;9.910;2023-07-13T13:03:00;20.10;;;9.75;;
31652;SDS011;18261;53.648;9.910;2023-07-13T13:05:28;10.32;;;2.33;;
31652;SDS011;18261;53.648;9.910;2023-07-13T13:07:55;4.90;;;1.77;;
31652;SDS011;18261;53.648;9.910;2023-07-13T13:10:21;8.23;;;2.30;;
31652;SDS011;18261;53.648;9.910;2023-07-13T13:12:47;7.38;;;2.03;;
31652;SDS011;18261;53.648;9.910;2023-07-13T13:15:13;8.75;;;2.63;;
31652;SDS011;18261;53.648;9.910;2023-07-13T13:17:39;5.82;;;2.17;;
31652;SDS011;18261;53.648;9.910;2023-07-13T13:20:23;7.80;;;2.33;;
31652;SDS011;18261;53.648;9.910;2023-07-13T13:22:51;5.22;;;2.15;;
31652;SDS011;18261;53.648;9.910;2023-07-13T13:25:17;6.75;;;2.08;;
31652;SDS011;18261;53.648;9.910;2023-07-13T13:27:44;9.02;;;2.78;;
31652;SDS011;18261;53.648;9.910;2023-07-13T13:30:11;6.18;;;2.60;;
31652;SDS011;18261;53.648;9.910;2023-07-13T13:32:38;6.65;;;1.90;;
31652;SDS011;18261;53.648;9.910;2023-07-13T13:35:04;7.35;;;2.00;;
31652;SDS011;18261;53.648;9.910;2023-07-13T13:37:31;3.50;;;1.40;;
31652;SDS011;18261;53.648;9.910;2023-07-13T13:39:57;4.65;;;1.77;;
31652;SDS011;18261;53.648;9.910;2023-07-13T13:42:23;3.47;;;1.50;;
31652;SDS011;18261;53.648;9.910;2023-07-13T13:44:51;6.68;;;1.85;;
31652;SDS011;18261;53.648;9.910;2023-07-13T13:47:22;5.00;;;1.70;;
31652;SDS011;18261;53.648;9.910;2023-07-13T13:49:53;9.32;;;2.60;;
31652;SDS011;18261;53.648;9.910;2023-07-13T13:52:19;6.45;;;2.10;;
31652;SDS011;18261;53.648;9.910;2023-07-13T13:54:45;4.53;;;1.80;;
31652;SDS011;18261;53.648;9.910;2023-07-13T13:57:11;4.18;;;2.30;;
31652;SDS011;18261;53.648;9.910;2023-07-13T13:59:37;5.82;;;1.98;;
31652;SDS011;18261;53.648;9.910;2023-07-13T14:02:10;7.43;;;2.13;;
31652;SDS011;18261;53.648;9.910;2023-07-13T14:04:37;7.65;;;2.00;;
31652;SDS011;18261;53.648;9.910;2023-07-13T14:07:03;8.07;;;2.33;;
31652;SDS011;18261;53.648;9.910;2023-07-13T14:09:29;5.22;;;2.08;;
31652;SDS011;18261;53.648;9.910;2023-07-13T14:11:56;5.38;;;1.95;;
31652;SDS011;18261;53.648;9.910;2023-07-13T14:14:22;5.28;;;1.80;;
31652;SDS011;18261;53.648;9.910;2023-07-13T14:16:49;7.65;;;2.10;;
31652;SDS011;18261;53.648;9.910;2023-07-13T14:19:18;5.35;;;1.80;;
31652;SDS011;18261;53.648;9.910;2023-07-13T14:21:45;6.60;;;2.58;;
31652;SDS011;18261;53.648;9.910;2023-07-13T14:24:12;7.05;;;2.80;;
31652;SDS011;18261;53.648;9.910;2023-07-13T14:26:39;8.38;;;2.50;;
31652;SDS011;18261;53.648;9.910;2023-07-13T14:29:13;7.63;;;2.60;;
31652;SDS011;18261;53.648;9.910;2023-07-13T14:31:40;5.63;;;2.35;;
31652;SDS011;18261;53.648;9.910;2023-07-13T14:34:07;8.20;;;2.47;;
31652;SDS011;18261;53.648;9.910;2023-07-13T14:36:34;7.40;;;2.42;;
31652;SDS011;18261;53.648;9.910;2023-07-13T14:39:09;5.97;;;1.88;;
31652;SDS011;18261;53.648;9.910;2023-07-13T14:41:36;4.15;;;2.15;;
31652;SDS011;18261;53.648;9.910;2023-07-13T14:44:07;7.18;;;2.70;;
31652;SDS011;18261;53.648;9.910;2023-07-13T14:46:34;8.20;;;2.60;;
31652;SDS011;18261;53.648;9.910;2023-07-13T14:49:34;7.97;;;2.55;;
31652;SDS011;18261;53.648;9.910;2023-07-13T14:51:52;15.77;;;5.78;;
31652;SDS011;18261;53.648;9.910;2023-07-13T14:54:20;7.05;;;4.22;;
31652;SDS011;18261;53.648;9.910;2023-07-13T14:56:46;7.75;;;2.53;;
31652;SDS011;18261;53.648;9.910;2023-07-13T14:59:13;6.82;;;2.55;;
31652;SDS011;18261;53.648;9.910;2023-07-13T15:01:39;7.07;;;2.53;;
31652;SDS011;18261;53.648;9.910;2023-07-13T15:04:05;5.40;;;2.15;;
31652;SDS011;18261;53.648;9.910;2023-07-13T15:06:35;4.47;;;1.95;;
31652;SDS011;18261;53.648;9.910;2023-07-13T15:09:17;9.05;;;2.13;;
31652;SDS011;18261;53.648;9.910;2023-07-13T15:11:43;10.63;;;5.10;;
31652;SDS011;18261;53.648;9.910;2023-07-13T15:14:09;10.00;;;3.00;;
31652;SDS011;18261;53.648;9.910;2023-07-13T15:16:35;7.93;;;2.17;;
31652;SDS011;18261;53.648;9.910;2023-07-13T15:19:01;7.85;;;2.00;;
31652;SDS011;18261;53.648;9.910;2023-07-13T15:21:27;7.28;;;1.90;;
31652;SDS011;18261;53.648;9.910;2023-07-13T15:23:59;5.18;;;1.60;;
31652;SDS011;18261;53.648;9.910;2023-07-13T15:26:26;9.75;;;2.90;;
31652;SDS011;18261;53.648;9.910;2023-07-13T15:28:52;9.32;;;3.70;;
31652;SDS011;18261;53.648;9.910;2023-07-13T15:31:23;7.95;;;2.55;;